createdAt,value
2019-05-30T00:01:47.875Z,8.30
2019-05-30T00:04:15.313Z,8.20
2019-05-30T00:06:42.080Z,8.20
2019-05-30T00:09:08.403Z,8.20
2019-05-30T00:11:34.638Z,8.10
2019-05-30T00:14:00.776Z,8.10
2019-05-30T00:16:26.903Z,8.00
2019-05-30T00:18:53.056Z,7.90
2019-05-30T00:21:19.689Z,7.90
2019-05-30T00:23:45.729Z,7.80
2019-05-30T00:26:11.906Z,7.80
2019-05-30T00:28:38.600Z,7.90
2019-05-30T00:31:04.812Z,7.90
2019-05-30T00:33:30.948Z,7.90
2019-05-30T00:35:57.657Z,7.80
2019-05-30T00:38:23.870Z,7.80
2019-05-30T00:40:49.993Z,7.80
2019-05-30T00:43:17.238Z,7.80
2019-05-30T00:45:43.370Z,7.80
2019-05-30T00:48:09.414Z,7.70
2019-05-30T00:50:35.450Z,7.70
2019-05-30T00:53:02.825Z,7.60
2019-05-30T00:55:28.982Z,7.70
2019-05-30T00:57:55.030Z,7.60
2019-05-30T01:00:21.251Z,7.60
2019-05-30T01:02:47.412Z,7.60
2019-05-30T01:05:13.632Z,7.60
2019-05-30T01:07:39.730Z,7.60
2019-05-30T01:10:07.439Z,7.50
2019-05-30T01:12:33.726Z,7.60
2019-05-30T01:15:01.079Z,7.50
2019-05-30T01:17:27.503Z,7.50
2019-05-30T01:19:53.556Z,7.40
2019-05-30T01:22:23.745Z,7.40
2019-05-30T01:24:49.786Z,7.30
2019-05-30T01:27:15.857Z,7.30
2019-05-30T01:29:42.014Z,7.30
2019-05-30T01:32:27.376Z,7.30
2019-05-30T01:34:53.526Z,7.30
2019-05-30T01:37:19.566Z,7.30
2019-05-30T01:39:46.994Z,7.30
2019-05-30T01:42:13.029Z,7.20
2019-05-30T01:44:39.154Z,7.20
2019-05-30T01:47:06.542Z,7.10
2019-05-30T01:49:32.742Z,7.10
2019-05-30T01:51:58.811Z,7.10
2019-05-30T01:54:25.184Z,7.10
2019-05-30T01:56:51.283Z,7.00
2019-05-30T01:59:17.407Z,6.90
2019-05-30T02:01:43.503Z,6.90
2019-05-30T02:04:09.583Z,6.90
2019-05-30T02:06:37.984Z,7.00
2019-05-30T02:09:05.670Z,7.00
2019-05-30T02:11:31.743Z,6.90
2019-05-30T02:13:57.789Z,7.00
2019-05-30T02:16:23.864Z,6.90
2019-05-30T02:18:49.902Z,6.90
2019-05-30T02:21:16.298Z,6.90
2019-05-30T02:23:42.452Z,6.90
2019-05-30T02:26:08.567Z,6.80
2019-05-30T02:28:34.600Z,6.80
2019-05-30T02:31:00.686Z,6.70
2019-05-30T02:33:26.822Z,6.80
2019-05-30T02:35:52.971Z,6.60
2019-05-30T02:38:19.010Z,6.60
2019-05-30T02:40:45.097Z,6.60
2019-05-30T02:43:12.116Z,6.60
2019-05-30T02:45:38.606Z,6.60
2019-05-30T02:48:05.482Z,6.60
2019-05-30T02:50:32.014Z,6.60
2019-05-30T02:52:58.130Z,6.60
2019-05-30T02:55:24.217Z,6.60
2019-05-30T02:57:50.248Z,6.60
2019-05-30T03:00:20.120Z,6.60
2019-05-30T03:02:46.195Z,6.60
2019-05-30T03:05:14.813Z,6.60
2019-05-30T03:07:40.298Z,6.50
2019-05-30T03:10:07.667Z,6.50
2019-05-30T03:12:36.145Z,6.40
2019-05-30T03:15:05.284Z,6.50
2019-05-30T03:17:32.467Z,6.40
2019-05-30T03:19:58.535Z,6.50
2019-05-30T03:22:25.810Z,6.40
2019-05-30T03:24:51.887Z,6.40
2019-05-30T03:27:17.984Z,6.40
2019-05-30T03:29:45.143Z,6.40
2019-05-30T03:32:58.290Z,6.40
2019-05-30T03:34:39.766Z,6.40
2019-05-30T03:37:10.663Z,6.30
2019-05-30T03:39:34.985Z,6.30
2019-05-30T03:42:01.058Z,6.30
2019-05-30T03:44:27.185Z,6.40
2019-05-30T03:46:57.035Z,6.40
2019-05-30T03:49:26.930Z,6.40
2019-05-30T03:51:56.790Z,6.40
2019-05-30T03:54:24.651Z,6.30
2019-05-30T03:56:54.967Z,6.40
2019-05-30T03:59:31.015Z,6.40
2019-05-30T04:02:08.962Z,6.40
2019-05-30T04:04:38.610Z,6.40
2019-05-30T04:07:12.060Z,6.40
2019-05-30T04:09:40.186Z,6.40
2019-05-30T04:12:12.161Z,6.50
2019-05-30T04:14:41.613Z,6.50
2019-05-30T04:17:16.056Z,6.60
2019-05-30T04:19:42.670Z,6.70
2019-05-30T04:22:09.388Z,6.80
2019-05-30T04:24:38.932Z,6.80
2019-05-30T04:27:08.105Z,6.90
2019-05-30T04:29:35.171Z,6.90
2019-05-30T04:32:02.057Z,7.00
2019-05-30T04:34:28.122Z,7.00
2019-05-30T04:36:54.169Z,7.10
2019-05-30T04:39:20.830Z,7.20
2019-05-30T04:41:46.902Z,7.20
2019-05-30T04:44:14.495Z,7.40
2019-05-30T04:46:40.911Z,7.40
2019-05-30T04:49:06.954Z,7.40
2019-05-30T04:51:33.019Z,7.40
2019-05-30T04:53:59.412Z,7.40
2019-05-30T04:56:25.483Z,7.50
2019-05-30T04:58:51.523Z,7.50
2019-05-30T05:01:18.209Z,7.70
2019-05-30T05:03:46.806Z,7.70
2019-05-30T05:06:17.890Z,7.90
2019-05-30T05:08:44.407Z,8.00
2019-05-30T05:11:22.550Z,8.10
2019-05-30T05:13:46.790Z,8.20
2019-05-30T05:16:27.103Z,8.30
2019-05-30T05:18:41.777Z,8.30
2019-05-30T05:21:07.839Z,8.30
2019-05-30T05:23:34.058Z,8.30
2019-05-30T05:26:01.801Z,8.40
2019-05-30T05:28:27.826Z,8.50
2019-05-30T07:07:58.905Z,13.50
2019-05-30T07:10:25.399Z,13.80
2019-05-30T07:12:51.645Z,13.90
2019-05-30T07:15:19.933Z,14.10
2019-05-30T07:17:45.981Z,14.20
2019-05-30T07:20:12.407Z,14.20
2019-05-30T07:22:38.443Z,14.40
2019-05-30T07:25:04.973Z,14.50
2019-05-30T07:27:32.013Z,14.50
2019-05-30T07:29:58.254Z,14.70
2019-05-30T07:32:24.290Z,14.80
2019-05-30T07:35:05.546Z,15.00
2019-05-30T07:37:18.409Z,15.10
2019-05-30T07:39:44.545Z,15.30
2019-05-30T07:42:10.596Z,15.40
2019-05-30T07:44:39.016Z,15.60
2019-05-30T07:47:05.066Z,15.70
2019-05-30T07:49:32.374Z,15.80
2019-05-30T07:51:58.646Z,16.00
2019-05-30T07:54:24.687Z,16.10
2019-05-30T07:56:50.724Z,16.10
2019-05-30T07:59:16.749Z,16.30
2019-05-30T08:01:42.808Z,16.20
2019-05-30T08:04:08.922Z,16.30
2019-05-30T08:06:35.797Z,16.40
2019-05-30T08:09:04.293Z,16.60
2019-05-30T08:11:30.861Z,16.90
2019-05-30T08:13:56.947Z,17.10
2019-05-30T08:16:22.979Z,17.20
2019-05-30T08:18:49.026Z,17.40
2019-05-30T08:21:15.055Z,17.50
2019-05-30T08:23:41.101Z,17.50
2019-05-30T08:26:07.129Z,17.70
2019-05-30T08:28:34.351Z,17.80
2019-05-30T08:31:00.526Z,17.90
2019-05-30T08:33:26.574Z,18.10
2019-05-30T08:35:52.601Z,18.10
2019-05-30T08:38:18.644Z,18.30
2019-05-30T08:40:44.778Z,18.30
2019-05-30T08:43:10.822Z,18.40
2019-05-30T13:02:23.551Z,19.50
2019-05-30T13:04:50.437Z,19.70
2019-05-30T13:07:17.095Z,19.90
2019-05-30T13:09:43.838Z,20.10
2019-05-30T13:12:09.962Z,19.90
2019-05-30T13:14:36.490Z,20.00
2019-05-30T13:17:03.914Z,20.00
2019-05-30T13:19:30.763Z,20.00
2019-05-30T13:21:58.985Z,19.80
2019-05-30T13:24:25.465Z,19.60
2019-05-30T13:26:52.178Z,19.40
2019-05-30T13:29:18.222Z,19.50
2019-05-30T13:31:44.311Z,19.50
2019-05-30T13:34:11.942Z,19.40
2019-05-30T13:36:38.115Z,19.40
2019-05-30T13:39:07.465Z,19.40
2019-05-30T13:41:34.271Z,19.40
2019-05-30T13:44:03.366Z,19.40
2019-05-30T13:46:28.406Z,19.20
2019-05-30T13:48:54.482Z,19.30
2019-05-30T13:51:20.563Z,19.30
2019-05-30T13:53:47.382Z,19.20
2019-05-30T13:56:13.449Z,19.20
2019-05-30T13:58:39.490Z,19.10
2019-05-30T14:01:11.530Z,19.00
2019-05-30T14:03:34.911Z,19.10
2019-05-30T14:06:02.943Z,19.00
2019-05-30T14:08:41.068Z,19.00
2019-05-30T14:11:02.509Z,19.00
2019-05-30T14:13:27.642Z,19.00
2019-05-30T14:15:53.746Z,18.90
2019-05-30T14:18:19.852Z,18.90
2019-05-30T14:24:17.447Z,19.00
2019-05-30T14:26:43.490Z,18.90
2019-05-30T14:29:10.080Z,18.90
2019-05-30T14:31:36.128Z,18.90
2019-05-30T14:34:02.183Z,19.00
2019-05-30T14:36:31.273Z,19.10
2019-05-30T14:38:58.947Z,19.30
2019-05-30T14:41:25.331Z,19.30
2019-05-30T14:43:51.816Z,19.40
2019-05-30T14:46:18.004Z,19.30
2019-05-30T14:48:44.026Z,19.30
2019-05-30T14:51:11.087Z,19.40
2019-05-30T14:53:37.368Z,19.60
2019-05-30T14:56:04.883Z,19.60
2019-05-30T14:58:31.183Z,19.60
2019-05-30T15:00:57.289Z,19.60
2019-05-30T15:03:23.348Z,19.50
2019-05-30T15:05:49.452Z,19.50
2019-05-30T15:08:16.777Z,19.50
2019-05-30T15:10:43.096Z,19.70
2019-05-30T15:13:09.720Z,19.90
2019-05-30T15:15:36.862Z,20.10
2019-05-30T15:18:03.209Z,20.30
2019-05-30T15:20:29.287Z,20.40
2019-05-30T15:22:55.355Z,20.50
2019-05-30T15:25:22.318Z,20.40
2019-05-30T15:27:48.432Z,20.40
2019-05-30T15:30:16.847Z,20.10
2019-05-30T15:32:43.103Z,20.10
2019-05-30T15:35:10.823Z,20.00
2019-05-30T15:41:22.277Z,20.10
2019-05-30T15:47:41.400Z,19.90
2019-05-30T15:50:50.647Z,19.90
2019-05-30T15:53:17.257Z,19.80
2019-05-30T15:55:43.557Z,19.70
2019-05-30T15:58:10.026Z,19.70
2019-05-30T16:00:36.999Z,19.70
2019-05-30T16:03:04.375Z,19.70
2019-05-30T16:05:30.606Z,19.70
2019-05-30T16:07:56.681Z,19.60
2019-05-30T16:10:23.527Z,19.60
2019-05-30T16:12:49.671Z,19.50
2019-05-30T16:15:16.039Z,19.40
2019-05-30T16:17:42.566Z,19.40
2019-05-30T16:20:08.920Z,19.40
2019-05-30T16:22:34.992Z,19.40
2019-05-30T16:25:01.384Z,19.30
2019-05-30T16:27:30.899Z,19.30
2019-05-30T16:29:55.407Z,19.30
2019-05-30T16:32:22.169Z,19.30
2019-05-30T16:34:50.186Z,19.30
2019-05-30T16:37:16.327Z,19.30
2019-05-30T16:39:42.436Z,19.30
2019-05-30T16:42:09.394Z,19.20
2019-05-30T16:44:35.454Z,19.20
2019-05-30T16:47:01.513Z,19.20
2019-05-30T16:49:28.705Z,19.30
2019-05-30T16:51:54.766Z,19.40
2019-05-30T16:54:21.357Z,19.20
2019-05-30T16:56:47.794Z,19.20
2019-05-30T16:59:14.488Z,19.20
2019-05-30T17:01:40.751Z,19.20
2019-05-30T17:04:06.919Z,19.20
2019-05-30T17:06:33.075Z,19.10
2019-05-30T17:08:59.126Z,19.20
2019-05-30T17:11:25.606Z,19.20
2019-05-30T17:13:51.772Z,19.10
2019-05-30T17:16:18.520Z,19.10
2019-05-30T17:18:44.563Z,19.10
2019-05-30T17:21:10.641Z,19.00
2019-05-30T17:23:36.723Z,19.00
2019-05-30T17:26:05.719Z,19.10
2019-05-30T17:28:33.889Z,19.10
2019-05-30T17:30:59.988Z,19.00
2019-05-30T17:33:26.719Z,19.00
2019-05-30T17:35:53.305Z,19.00
2019-05-30T17:38:20.415Z,18.90
2019-05-30T17:40:49.615Z,18.90
2019-05-30T17:43:14.496Z,18.90
2019-05-30T17:45:42.400Z,18.90
2019-05-30T17:48:16.540Z,18.90
2019-05-30T17:50:36.479Z,18.90
2019-05-30T17:53:02.515Z,18.80
2019-05-30T17:55:28.584Z,18.80
2019-05-30T17:57:54.916Z,18.80
2019-05-30T18:00:22.298Z,18.90
2019-05-30T18:02:48.437Z,18.80
2019-05-30T18:05:14.683Z,18.70
2019-05-30T18:07:40.717Z,18.80
2019-05-30T18:10:07.303Z,18.70
2019-05-30T18:12:33.352Z,18.70
2019-05-30T18:14:59.389Z,18.60
2019-05-30T18:17:25.472Z,18.60
2019-05-30T18:19:51.546Z,18.70
2019-05-30T18:22:17.619Z,18.70
2019-05-30T18:24:43.676Z,18.60
2019-05-30T18:27:09.758Z,18.60
2019-05-30T18:29:46.234Z,18.60
2019-05-30T18:32:12.266Z,18.50
2019-05-30T18:34:38.354Z,18.50
2019-05-30T18:37:04.381Z,18.40
2019-05-30T18:39:30.779Z,18.40
2019-05-30T18:41:56.939Z,18.40
2019-05-30T18:44:23.194Z,18.40
2019-05-30T18:46:49.386Z,18.40
2019-05-30T18:49:16.176Z,18.30
2019-05-30T18:51:42.344Z,18.40
2019-05-30T18:54:08.579Z,18.30
2019-05-30T18:56:34.659Z,18.30
2019-05-30T18:59:00.721Z,18.30
2019-05-30T19:01:27.354Z,18.30
2019-05-30T19:03:53.537Z,18.30
2019-05-30T19:06:20.824Z,18.20
2019-05-30T19:08:46.920Z,18.20
2019-05-30T19:11:26.637Z,18.10
2019-05-30T19:13:40.929Z,18.10
2019-05-30T19:16:07.095Z,18.10
2019-05-30T19:18:33.661Z,18.10
2019-05-30T19:21:03.314Z,18.00
2019-05-30T19:23:30.026Z,17.90
2019-05-30T19:25:56.176Z,17.90
2019-05-30T19:28:22.241Z,18.00
2019-05-30T19:30:48.378Z,18.00
2019-05-30T19:33:14.455Z,17.90
2019-05-30T19:35:40.508Z,17.90
2019-05-30T19:38:06.595Z,17.80
2019-05-30T19:40:33.619Z,17.80
2019-05-30T19:42:59.815Z,17.70
2019-05-30T19:45:25.948Z,17.70
2019-05-30T19:47:52.029Z,17.60
2019-05-30T19:50:18.068Z,17.60
2019-05-30T19:52:46.862Z,17.60
2019-05-30T19:55:12.816Z,17.50
2019-05-30T19:57:39.938Z,17.40
2019-05-30T20:00:08.272Z,17.40
2019-05-30T20:02:34.313Z,17.40
2019-05-30T20:05:00.360Z,17.40
2019-05-30T20:07:26.452Z,17.40
2019-05-30T20:10:00.773Z,17.50
2019-05-30T20:12:20.431Z,17.50
2019-05-30T20:14:46.515Z,17.40
2019-05-30T20:17:12.596Z,17.40
2019-05-30T20:19:39.916Z,17.30
2019-05-30T20:22:06.111Z,17.30
2019-05-30T20:24:32.225Z,17.20
2019-05-30T20:26:58.435Z,17.10
2019-05-30T20:29:24.503Z,17.10
2019-05-30T20:31:50.679Z,17.00
2019-05-30T20:34:16.713Z,17.00
2019-05-30T20:36:42.821Z,16.90
2019-05-30T20:39:08.846Z,16.90
2019-05-30T20:41:34.878Z,16.90
2019-05-30T20:44:00.964Z,16.80
2019-05-30T20:46:27.091Z,16.70
2019-05-30T20:48:53.172Z,16.60
2019-05-30T20:51:21.511Z,16.50
2019-05-30T20:53:47.655Z,16.40
2019-05-30T20:56:13.928Z,16.40
2019-05-30T20:58:40.017Z,16.40
2019-05-30T21:01:06.059Z,16.30
2019-05-30T21:03:32.098Z,16.20
2019-05-30T21:05:58.688Z,16.20
2019-05-30T21:08:24.922Z,16.10
2019-05-30T21:10:55.531Z,16.10
2019-05-30T21:13:22.604Z,16.10
2019-05-30T21:15:48.676Z,16.00
2019-05-30T21:18:17.303Z,16.00
2019-05-30T21:20:44.138Z,16.00
2019-05-30T21:23:10.275Z,15.90
2019-05-30T21:25:37.468Z,15.90
2019-05-30T21:28:04.056Z,15.80
2019-05-30T21:30:30.141Z,15.80
2019-05-30T21:32:56.298Z,15.80
2019-05-30T21:35:22.651Z,15.80
2019-05-30T21:37:48.747Z,15.80
2019-05-30T21:40:15.425Z,15.70
2019-05-30T21:42:58.250Z,15.70
2019-05-30T21:45:10.149Z,15.60
2019-05-30T21:47:36.317Z,15.70
2019-05-30T21:50:05.023Z,15.60
2019-05-30T21:52:31.078Z,15.60
2019-05-30T21:54:57.170Z,15.60
2019-05-30T21:57:23.977Z,15.50
2019-05-30T21:59:50.799Z,15.40
2019-05-30T22:02:17.061Z,15.40
2019-05-30T22:04:44.409Z,15.40
2019-05-30T22:07:10.528Z,15.40
2019-05-30T22:09:36.596Z,15.40
2019-05-30T22:12:03.026Z,15.30
2019-05-30T22:14:29.194Z,15.30
2019-05-30T22:16:55.235Z,15.40
2019-05-30T22:19:21.323Z,15.30
2019-05-30T22:21:48.062Z,15.30
2019-05-30T22:24:19.408Z,15.20
2019-05-30T22:26:46.361Z,15.10
2019-05-30T22:29:12.508Z,15.10
2019-05-30T22:31:38.573Z,15.00
2019-05-30T22:34:04.651Z,15.00
2019-05-30T22:36:30.703Z,15.00
2019-05-30T22:38:56.787Z,15.00
2019-05-30T22:41:22.825Z,14.90
2019-05-30T22:43:48.919Z,14.90
2019-05-30T22:46:14.969Z,14.90
2019-05-30T22:48:41.141Z,14.80
2019-05-30T22:51:07.220Z,14.90
2019-05-30T22:53:33.272Z,14.80
2019-05-30T22:55:59.353Z,14.90
2019-05-30T22:58:25.579Z,14.80
2019-05-30T23:00:52.129Z,14.80
2019-05-30T23:03:18.379Z,14.80
2019-05-30T23:05:47.236Z,14.80
2019-05-30T23:08:13.476Z,14.80
2019-05-30T23:10:39.561Z,14.70
2019-05-30T23:13:07.351Z,14.70
2019-05-30T23:15:35.109Z,14.70
2019-05-30T23:18:02.373Z,14.70
2019-05-30T23:20:28.425Z,14.70
2019-05-30T23:22:55.162Z,14.60
2019-05-30T23:25:21.335Z,14.70
2019-05-30T23:27:47.498Z,14.60
2019-05-30T23:30:15.260Z,14.60
2019-05-30T23:32:41.301Z,14.60
2019-05-30T23:35:07.429Z,14.60
2019-05-30T23:37:34.693Z,14.60
2019-05-30T23:40:00.730Z,14.60
2019-05-30T23:42:26.759Z,14.60
2019-05-30T23:44:54.027Z,14.60
2019-05-30T23:47:20.595Z,14.60
2019-05-30T23:49:46.989Z,14.60
2019-05-30T23:52:14.674Z,14.60
2019-05-30T23:54:41.835Z,14.50
2019-05-30T23:57:07.890Z,14.60
2019-05-30T23:59:35.852Z,14.50
